| time (UTC) | temp C | wind direction | speed KPH | gust KPH | rain 1hr cm | rain 24hr cm | rain mn cm | humidity % | barometer mb |
| 20260509102107 | 32 | 42 | 3.2 | 4.8 | 0.00 | 0.00 | 0.00 | 56 | 1008.5 |
| 20260509101606 | 33 | 63 | 9.7 | 11.3 | 0.00 | 0.00 | 0.00 | 56 | 1007.8 |
| 20260509101106 | 33 | 71 | 3.2 | 9.7 | 0.00 | 0.00 | 0.00 | 56 | 1007.8 |
| 20260509100607 | 33 | 107 | 3.2 | 8.0 | 0.00 | 0.00 | 0.00 | 55 | 1007.8 |
| 20260509100106 | 33 | 54 | 11.3 | 14.5 | 0.00 | 0.00 | 0.00 | 55 | 1007.8 |
| 20260509095606 | 33 | 36 | 8.0 | 11.3 | 0.00 | 0.00 | 0.00 | 55 | 1007.8 |
| 20260509095106 | 33 | 65 | 8.0 | 14.5 | 0.00 | 0.00 | 0.00 | 54 | 1007.8 |
| 20260509094606 | 33 | 30 | 9.7 | 14.5 | 0.00 | 0.00 | 0.00 | 54 | 1007.8 |
| 20260509094106 | 33 | 66 | 8.0 | 12.9 | 0.00 | 0.00 | 0.00 | 54 | 1007.5 |
| 20260509093606 | 33 | 58 | 8.0 | 14.5 | 0.00 | 0.00 | 0.00 | 53 | 1007.5 |
| 20260509093106 | 34 | 66 | 11.3 | 14.5 | 0.00 | 0.00 | 0.00 | 53 | 1007.5 |
| 20260509092606 | 34 | 53 | 11.3 | 14.5 | 0.00 | 0.00 | 0.00 | 52 | 1007.5 |
| 20260509092106 | 34 | 62 | 11.3 | 16.1 | 0.00 | 0.00 | 0.00 | 52 | 1007.5 |
| 20260509091606 | 34 | 33 | 9.7 | 20.9 | 0.00 | 0.00 | 0.00 | 51 | 1007.1 |
| 20260509091106 | 34 | 70 | 14.5 | 16.1 | 0.00 | 0.00 | 0.00 | 51 | 1007.1 |
| 20260509090606 | 35 | 68 | 8.0 | 16.1 | 0.00 | 0.00 | 0.00 | 50 | 1007.1 |
| 20260509090106 | 35 | 56 | 11.3 | 14.5 | 0.00 | 0.00 | 0.00 | 50 | 1007.1 |
| 20260509085606 | 35 | 64 | 8.0 | 12.9 | 0.00 | 0.00 | 0.00 | 50 | 1007.1 |
| 20260509085106 | 35 | 54 | 9.7 | 14.5 | 0.00 | 0.00 | 0.00 | 50 | 1006.8 |
| 20260509084606 | 35 | 53 | 9.7 | 16.1 | 0.00 | 0.00 | 0.00 | 51 | 1006.8 |
| 20260509084106 | 35 | 59 | 8.0 | 12.9 | 0.00 | 0.00 | 0.00 | 50 | 1006.8 |
| 20260509083606 | 35 | 36 | 11.3 | 16.1 | 0.00 | 0.00 | 0.00 | 50 | 1006.8 |
| 20260509083107 | 35 | 74 | 12.9 | 14.5 | 0.00 | 0.00 | 0.00 | 49 | 1006.4 |
| 20260509082606 | 35 | 69 | 11.3 | 14.5 | 0.00 | 0.00 | 0.00 | 49 | 1006.4 |
| 20260509082106 | 35 | 66 | 4.8 | 11.3 | 0.00 | 0.00 | 0.00 | 49 | 1006.4 |
| 20260509081607 | 35 | 62 | 4.8 | 11.3 | 0.00 | 0.00 | 0.00 | 48 | 1006.8 |
| 20260509081108 | 35 | 55 | 11.3 | 16.1 | 0.00 | 0.00 | 0.00 | 48 | 1006.8 |
| 20260509080606 | 35 | 48 | 8.0 | 12.9 | 0.00 | 0.00 | 0.00 | 48 | 1006.4 |
| 20260509080106 | 36 | 57 | 4.8 | 16.1 | 0.00 | 0.00 | 0.00 | 49 | 1006.4 |
| 20260509075606 | 36 | 60 | 6.4 | 9.7 | 0.00 | 0.00 | 0.00 | 48 | 1006.4 |
| 20260509075106 | 36 | 90 | 4.8 | 8.0 | 0.00 | 0.00 | 0.00 | 48 | 1006.4 |
| 20260509074606 | 37 | 72 | 8.0 | 9.7 | 0.00 | 0.00 | 0.00 | 47 | 1006.1 |
| 20260509074107 | 38 | 120 | 6.4 | 8.0 | 0.00 | 0.00 | 0.00 | 45 | 1006.1 |
| 20260509073607 | 38 | 67 | 4.8 | 9.7 | 0.00 | 0.00 | 0.00 | 45 | 1006.4 |
| 20260509073106 | 37 | 50 | 8.0 | 9.7 | 0.00 | 0.00 | 0.00 | 47 | 1006.4 |
| 20260509072606 | 36 | 55 | 1.6 | 9.7 | 0.00 | 0.00 | 0.00 | 49 | 1006.1 |
| 20260509072107 | 35 | 191 | 11.3 | 25.7 | 0.00 | 0.00 | 0.00 | 54 | 1006.4 |
| 20260509071607 | 35 | 120 | 16.1 | 17.7 | 0.00 | 0.00 | 0.00 | 51 | 1006.4 |
| 20260509071106 | 35 | 124 | 14.5 | 25.7 | 0.00 | 0.00 | 0.00 | 54 | 1006.4 |
| 20260509070607 | 35 | 110 | 8.0 | 20.9 | 0.00 | 0.00 | 0.00 | 54 | 1006.8 |
| 20260509070107 | 35 | 111 | 4.8 | 25.7 | 0.00 | 0.00 | 0.00 | 52 | 1006.8 |
| 20260509065610 | 35 | 87 | 8.0 | 20.9 | 0.00 | 0.00 | 0.00 | 52 | 1007.1 |
| 20260509065106 | 35 | 123 | 17.7 | 24.1 | 0.00 | 0.00 | 0.00 | 53 | 1006.8 |
| 20260509064606 | 36 | 159 | 14.5 | 20.9 | 0.00 | 0.00 | 0.00 | 51 | 1006.8 |
| 20260509064106 | 36 | 74 | 4.8 | 9.7 | 0.00 | 0.00 | 0.00 | 51 | 1007.1 |
| 20260509063606 | 36 | 87 | 17.7 | 22.5 | 0.00 | 0.00 | 0.00 | 50 | 1006.8 |
| 20260509063107 | 36 | 121 | 24.1 | 29.0 | 0.00 | 0.00 | 0.00 | 51 | 1007.1 |
| 20260509062606 | 35 | 142 | 9.7 | 22.5 | 0.00 | 0.00 | 0.00 | 53 | 1007.1 |
| 20260509062106 | 36 | 156 | 14.5 | 22.5 | 0.00 | 0.00 | 0.00 | 53 | 1007.5 |
| 20260509061606 | 36 | 107 | 11.3 | 25.7 | 0.00 | 0.00 | 0.00 | 52 | 1007.5 |
| 20260509061106 | 35 | 112 | 11.3 | 27.4 | 0.00 | 0.00 | 0.00 | 54 | 1007.1 |
| 20260509060607 | 35 | 170 | 17.7 | 27.4 | 0.00 | 0.00 | 0.00 | 53 | 1007.1 |
| 20260509060107 | 35 | 163 | 29.0 | 33.8 | 0.00 | 0.00 | 0.00 | 53 | 1007.5 |
| 20260509055606 | 35 | 125 | 16.1 | 25.7 | 0.00 | 0.00 | 0.00 | 54 | 1007.8 |
| 20260509055107 | 36 | 177 | 8.0 | 17.7 | 0.00 | 0.00 | 0.00 | 52 | 1007.5 |
| 20260509054607 | 35 | 108 | 12.9 | 24.1 | 0.00 | 0.00 | 0.00 | 51 | 1007.5 |
| 20260509054106 | 35 | 157 | 25.7 | 29.0 | 0.00 | 0.00 | 0.00 | 51 | 1007.8 |
| 20260509053606 | 35 | 69 | 17.7 | 29.0 | 0.00 | 0.00 | 0.00 | 53 | 1007.8 |
| 20260509053106 | 35 | 100 | 9.7 | 29.0 | 0.00 | 0.00 | 0.00 | 52 | 1007.8 |
| 20260509052606 | 35 | 241 | 17.7 | 22.5 | 0.00 | 0.00 | 0.00 | 53 | 1007.8 |
| 20260509052106 | 35 | 112 | 27.4 | 33.8 | 0.00 | 0.00 | 0.00 | 53 | 1008.1 |
| 20260509051607 | 35 | 142 | 14.5 | 27.4 | 0.00 | 0.00 | 0.00 | 54 | 1008.5 |
| 20260509051106 | 35 | 111 | 20.9 | 25.7 | 0.00 | 0.00 | 0.00 | 53 | 1008.1 |
| 20260509050606 | 35 | 120 | 17.7 | 29.0 | 0.00 | 0.00 | 0.00 | 54 | 1008.5 |
| 20260509050106 | 35 | 188 | 12.9 | 22.5 | 0.00 | 0.00 | 0.00 | 53 | 1008.5 |
| 20260509045606 | 35 | 213 | 4.8 | 25.7 | 0.00 | 0.00 | 0.00 | 52 | 1008.5 |
| 20260509045107 | 35 | 223 | 4.8 | 20.9 | 0.00 | 0.00 | 0.00 | 53 | 1008.8 |
| 20260509044606 | 34 | 145 | 11.3 | 24.1 | 0.00 | 0.00 | 0.00 | 54 | 1009.1 |
| 20260509044106 | 34 | 84 | 19.3 | 27.4 | 0.00 | 0.00 | 0.00 | 53 | 1009.1 |
| 20260509043607 | 35 | 123 | 14.5 | 22.5 | 0.00 | 0.00 | 0.00 | 53 | 1009.1 |
| 20260509043107 | 35 | 162 | 12.9 | 25.7 | 0.00 | 0.00 | 0.00 | 52 | 1009.1 |
| 20260509042607 | 35 | 121 | 14.5 | 32.2 | 0.00 | 0.00 | 0.00 | 51 | 1009.5 |
| 20260509042106 | 35 | 208 | 4.8 | 22.5 | 0.00 | 0.00 | 0.00 | 52 | 1009.5 |
| 20260509041606 | 35 | 144 | 16.1 | 22.5 | 0.00 | 0.00 | 0.00 | 53 | 1009.5 |
| 20260509041106 | 35 | 138 | 14.5 | 20.9 | 0.00 | 0.00 | 0.00 | 53 | 1009.5 |
| 20260509040519 | 34 | 176 | 14.5 | 24.1 | 0.00 | 0.00 | 0.00 | 54 | 1009.8 |
| 20260509040006 | 35 | 243 | 22.5 | 27.4 | 0.00 | 0.00 | 0.00 | 54 | 1009.8 |
| 20260509035506 | 35 | 138 | 16.1 | 32.2 | 0.00 | 0.00 | 0.00 | 52 | 1009.8 |
| 20260509035006 | 33 | 178 | 9.7 | 24.1 | 0.00 | 0.00 | 0.00 | 54 | 1009.8 |
| 20260509034506 | 34 | 145 | 12.9 | 24.1 | 0.00 | 0.00 | 0.00 | 55 | 1009.8 |
| 20260509034007 | 34 | 138 | 14.5 | 22.5 | 0.00 | 0.00 | 0.00 | 55 | 1010.2 |
| 20260509033506 | 34 | 151 | 11.3 | 17.7 | 0.00 | 0.00 | 0.00 | 55 | 1009.8 |
| 20260509033006 | 34 | 147 | 9.7 | 24.1 | 0.00 | 0.00 | 0.00 | 56 | 1010.2 |
| 20260509032506 | 35 | 139 | 19.3 | 25.7 | 0.00 | 0.00 | 0.00 | 54 | 1010.2 |
| 20260509032006 | 35 | 160 | 11.3 | 25.7 | 0.00 | 0.00 | 0.00 | 54 | 1010.2 |
| 20260509031507 | 34 | 104 | 12.9 | 24.1 | 0.00 | 0.00 | 0.00 | 55 | 1010.2 |
| 20260509031006 | 35 | 93 | 4.8 | 17.7 | 0.00 | 0.00 | 0.00 | 54 | 1010.2 |
| 20260509030506 | 34 | 139 | 9.7 | 11.3 | 0.00 | 0.00 | 0.00 | 56 | 1010.2 |
| 20260509030008 | 34 | 180 | 9.7 | 17.7 | 0.00 | 0.00 | 0.00 | 55 | 1010.5 |
| 20260509025507 | 33 | 106 | 14.5 | 24.1 | 0.00 | 0.00 | 0.00 | 60 | 1010.5 |
| 20260509025006 | 33 | 119 | 22.5 | 24.1 | 0.00 | 0.00 | 0.00 | 58 | 1010.5 |
| 20260509024506 | 33 | 128 | 20.9 | 25.7 | 0.00 | 0.00 | 0.00 | 57 | 1010.5 |
| 20260509024007 | 35 | 140 | 12.9 | 22.5 | 0.00 | 0.00 | 0.00 | 54 | 1010.5 |
| 20260509023506 | 35 | 139 | 3.2 | 9.7 | 0.00 | 0.00 | 0.00 | 50 | 1010.8 |
| 20260509023006 | 34 | 321 | 9.7 | 17.7 | 0.00 | 0.00 | 0.00 | 56 | 1010.5 |
| 20260509022506 | 36 | 148 | 9.7 | 14.5 | 0.00 | 0.00 | 0.00 | 52 | 1010.5 |
| 20260509022006 | 35 | 26 | 6.4 | 8.0 | 0.00 | 0.00 | 0.00 | 47 | 1010.8 |
| 20260509021506 | 35 | 154 | 4.8 | 11.3 | 0.00 | 0.00 | 0.00 | 47 | 1010.8 |
| 20260509021006 | 35 | 64 | 1.6 | 9.7 | 0.00 | 0.00 | 0.00 | 50 | 1010.8 |
| 20260509020508 | 35 | 110 | 9.7 | 12.9 | 0.00 | 0.00 | 0.00 | 49 | 1011.2 |
| 20260509020006 | 35 | 48 | 11.3 | 16.1 | 0.00 | 0.00 | 0.00 | 48 | 1011.2 |
| 20260509015506 | 36 | 72 | 4.8 | 8.0 | 0.00 | 0.00 | 0.00 | 48 | 1011.2 |
| 20260509015010 | 36 | 299 | 6.4 | 9.7 | 0.00 | 0.00 | 0.00 | 47 | 1011.2 |
| 20260509014507 | 36 | 61 | 4.8 | 12.9 | 0.00 | 0.00 | 0.00 | 48 | 1011.2 |
| 20260509014006 | 35 | 182 | 1.6 | 3.2 | 0.00 | 0.00 | 0.00 | 50 | 1011.2 |
| 20260509013507 | 35 | 81 | 4.8 | 12.9 | 0.00 | 0.00 | 0.00 | 48 | 1011.2 |
| 20260509013006 | 35 | 66 | 1.6 | 9.7 | 0.00 | 0.00 | 0.00 | 50 | 1010.8 |
| 20260509012506 | 35 | 64 | 9.7 | 14.5 | 0.00 | 0.00 | 0.00 | 49 | 1011.2 |
| 20260509012007 | 35 | 126 | 6.4 | 9.7 | 0.00 | 0.00 | 0.00 | 49 | 1011.2 |
| 20260509011506 | 35 | 77 | 9.7 | 12.9 | 0.00 | 0.00 | 0.00 | 49 | 1011.2 |
| 20260509011006 | 35 | 319 | 3.2 | 11.3 | 0.00 | 0.00 | 0.00 | 51 | 1011.5 |
| 20260509010506 | 35 | 66 | 3.2 | 9.7 | 0.00 | 0.00 | 0.00 | 49 | 1011.2 |
| 20260509010006 | 35 | 10 | 0.0 | 8.0 | 0.00 | 0.00 | 0.00 | 51 | 1011.2 |
| 20260509005506 | 33 | 69 | 0.0 | 8.0 | 0.00 | 0.00 | 0.00 | 54 | 1011.5 |
| 20260509005006 | 33 | 48 | 1.6 | 8.0 | 0.00 | 0.00 | 0.00 | 54 | 1011.5 |
| 20260509004507 | 34 | 46 | 9.7 | 16.1 | 0.00 | 0.00 | 0.00 | 53 | 1011.2 |
| 20260509004006 | 33 | 78 | 11.3 | 14.5 | 0.00 | 0.00 | 0.00 | 53 | 1011.5 |
| 20260509003506 | 33 | 72 | 4.8 | 12.9 | 0.00 | 0.00 | 0.00 | 54 | 1011.5 |
| 20260509003008 | 33 | 56 | 1.6 | 9.7 | 0.00 | 0.00 | 0.00 | 54 | 1011.5 |
| 20260509002506 | 33 | 51 | 1.6 | 12.9 | 0.00 | 0.00 | 0.00 | 55 | 1011.2 |
| 20260509002007 | 33 | 45 | 9.7 | 12.9 | 0.00 | 0.00 | 0.00 | 53 | 1011.5 |
| 20260509001507 | 33 | 70 | 4.8 | 8.0 | 0.00 | 0.00 | 0.00 | 54 | 1011.5 |
| 20260509001006 | 33 | 84 | 1.6 | 11.3 | 0.00 | 0.00 | 0.00 | 56 | 1011.2 |
| 20260509000507 | 33 | 69 | 4.8 | 8.0 | 0.00 | 0.00 | 0.00 | 56 | 1011.5 |
| 20260509000006 | 33 | 24 | 1.6 | 4.8 | 0.00 | 0.00 | 0.00 | 57 | 1011.2 |
| 20260508235509 | 33 | 304 | 4.8 | 4.8 | 0.00 | 0.00 | 0.00 | 56 | 1011.2 |
| 20260508235007 | 33 | 272 | 0.0 | 3.2 | 0.00 | 0.00 | 0.00 | 57 | 1011.2 |
| 20260508234506 | 32 | 60 | 1.6 | 3.2 | 0.00 | 0.00 | 0.00 | 57 | 1011.2 |
| 20260508234006 | 32 | 60 | 4.8 | 4.8 | 0.00 | 0.00 | 0.00 | 58 | 1011.2 |
| 20260508233506 | 32 | 338 | 3.2 | 4.8 | 0.00 | 0.00 | 0.00 | 59 | 1010.8 |
| 20260508233006 | 31 | 56 | 1.6 | 3.2 | 0.00 | 0.00 | 0.00 | 60 | 1011.2 |
| 20260508232506 | 31 | 299 | 4.8 | 4.8 | 0.00 | 0.00 | 0.00 | 59 | 1010.8 |
| 20260508232006 | 32 | 302 | 3.2 | 4.8 | 0.00 | 0.00 | 0.00 | 59 | 1010.8 |
| 20260508231506 | 31 | 304 | 0.0 | 1.6 | 0.00 | 0.00 | 0.00 | 63 | 1011.2 |
| 20260508231006 | 31 | 306 | 4.8 | 4.8 | 0.00 | 0.00 | 0.00 | 62 | 1010.5 |
| 20260508230506 | 30 | 281 | 1.6 | 4.8 | 0.00 | 0.00 | 0.00 | 65 | 1010.8 |
| 20260508230006 | 30 | 279 | 1.6 | 3.2 | 0.00 | 0.00 | 0.00 | 65 | 1010.8 |
| 20260508225506 | 30 | 267 | 3.2 | 3.2 | 0.00 | 0.00 | 0.00 | 65 | 1010.5 |
| 20260508225006 | 30 | 282 | 1.6 | 1.6 | 0.00 | 0.00 | 0.00 | 66 | 1010.8 |
| 20260508224506 | 30 | 293 | 1.6 | 3.2 | 0.00 | 0.00 | 0.00 | 66 | 1010.8 |
| 20260508224006 | 30 | 289 | 1.6 | 1.6 | 0.00 | 0.00 | 0.00 | 66 | 1010.2 |
| 20260508223506 | 30 | 290 | 0.0 | 3.2 | 0.00 | 0.00 | 0.00 | 66 | 1010.5 |
| 20260508223006 | 30 | 292 | 0.0 | 3.2 | 0.00 | 0.00 | 0.00 | 66 | 1010.2 |
| 20260508222506 | 30 | 313 | 1.6 | 1.6 | 0.00 | 0.00 | 0.00 | 64 | 1009.8 |
| 20260508222007 | 30 | 313 | 0.0 | 1.6 | 0.00 | 0.00 | 0.00 | 64 | 1010.2 |
| 20260508221507 | 30 | 54 | 0.0 | 1.6 | 0.00 | 0.00 | 0.00 | 64 | 1009.8 |
| 20260508221006 | 30 | 45 | 0.0 | 1.6 | 0.00 | 0.00 | 0.00 | 64 | 1010.2 |
| 20260508220506 | 30 | 41 | 0.0 | 0.0 | 0.00 | 0.00 | 0.00 | 65 | 1010.2 |
| 20260508220007 | 29 | 33 | 0.0 | 1.6 | 0.00 | 0.00 | 0.00 | 67 | 1009.8 |
| 20260508215506 | 28 | 32 | 0.0 | 1.6 | 0.00 | 0.00 | 0.00 | 68 | 1009.8 |
| 20260508215006 | 28 | 32 | 0.0 | 1.6 | 0.00 | 0.00 | 0.00 | 69 | 1009.8 |
| 20260508214507 | 28 | 304 | 0.0 | 1.6 | 0.00 | 0.00 | 0.00 | 70 | 1009.5 |
| 20260508214007 | 28 | 303 | 0.0 | 1.6 | 0.00 | 0.00 | 0.00 | 70 | 1009.5 |
| 20260508213506 | 28 | 303 | 0.0 | 1.6 | 0.00 | 0.00 | 0.00 | 69 | 1009.5 |
| 20260508213007 | 28 | 303 | 1.6 | 3.2 | 0.00 | 0.00 | 0.00 | 70 | 1009.5 |
| 20260508212506 | 28 | 60 | 0.0 | 3.2 | 0.00 | 0.00 | 0.00 | 69 | 1009.5 |
| 20260508212006 | 28 | 52 | 4.8 | 4.8 | 0.00 | 0.00 | 0.00 | 69 | 1009.5 |
| 20260508211506 | 28 | 64 | 1.6 | 3.2 | 0.00 | 0.00 | 0.00 | 69 | 1009.5 |
| 20260508211007 | 28 | 52 | 4.8 | 4.8 | 0.00 | 0.00 | 0.00 | 69 | 1009.5 |
| 20260508210508 | 28 | 58 | 1.6 | 3.2 | 0.00 | 0.00 | 0.00 | 68 | 1009.5 |
| 20260508210006 | 28 | 64 | 1.6 | 8.0 | 0.00 | 0.00 | 0.00 | 68 | 1009.5 |
| 20260508205506 | 28 | 58 | 4.8 | 9.7 | 0.00 | 0.00 | 0.00 | 69 | 1009.5 |
| 20260508205006 | 28 | 61 | 3.2 | 4.8 | 0.00 | 0.00 | 0.00 | 69 | 1009.1 |
| 20260508204506 | 28 | 53 | 4.8 | 8.0 | 0.00 | 0.00 | 0.00 | 69 | 1009.5 |
| 20260508204006 | 28 | 54 | 3.2 | 3.2 | 0.00 | 0.00 | 0.00 | 69 | 1009.1 |
| 20260508203506 | 28 | 65 | 3.2 | 4.8 | 0.00 | 0.00 | 0.00 | 69 | 1009.5 |
| 20260508203006 | 28 | 73 | 4.8 | 8.0 | 0.00 | 0.00 | 0.00 | 69 | 1009.1 |
| 20260508202506 | 28 | 51 | 3.2 | 3.2 | 0.00 | 0.00 | 0.00 | 68 | 1009.5 |
| 20260508202009 | 28 | 56 | 3.2 | 4.8 | 0.00 | 0.00 | 0.00 | 68 | 1009.5 |
| 20260508201506 | 28 | 59 | 3.2 | 3.2 | 0.00 | 0.00 | 0.00 | 68 | 1009.5 |
| 20260508201006 | 28 | 70 | 4.8 | 8.0 | 0.00 | 0.00 | 0.00 | 68 | 1009.1 |
| 20260508200506 | 28 | 68 | 1.6 | 4.8 | 0.00 | 0.00 | 0.00 | 68 | 1009.1 |
| 20260508200007 | 28 | 68 | 3.2 | 4.8 | 0.00 | 0.00 | 0.00 | 68 | 1009.1 |
| 20260508195507 | 28 | 68 | 3.2 | 3.2 | 0.00 | 0.00 | 0.00 | 69 | 1009.1 |
| 20260508195006 | 28 | 59 | 4.8 | 4.8 | 0.00 | 0.00 | 0.00 | 68 | 1009.1 |
| 20260508194507 | 28 | 83 | 4.8 | 4.8 | 0.00 | 0.00 | 0.00 | 68 | 1009.1 |
| 20260508194007 | 29 | 63 | 4.8 | 4.8 | 0.00 | 0.00 | 0.00 | 68 | 1009.1 |
| 20260508193507 | 29 | 50 | 0.0 | 3.2 | 0.00 | 0.00 | 0.00 | 68 | 1009.5 |
| 20260508193007 | 29 | 63 | 3.2 | 4.8 | 0.00 | 0.00 | 0.00 | 68 | 1009.1 |
| 20260508192506 | 29 | 56 | 4.8 | 4.8 | 0.00 | 0.00 | 0.00 | 68 | 1009.1 |
| 20260508192006 | 29 | 63 | 3.2 | 3.2 | 0.00 | 0.00 | 0.00 | 68 | 1009.1 |
| 20260508191506 | 29 | 90 | 1.6 | 3.2 | 0.00 | 0.00 | 0.00 | 67 | 1009.1 |
| 20260508191007 | 29 | 64 | 3.2 | 4.8 | 0.00 | 0.00 | 0.00 | 67 | 1009.1 |
| 20260508190506 | 29 | 75 | 1.6 | 3.2 | 0.00 | 0.00 | 0.00 | 68 | 1009.5 |
| 20260508190007 | 29 | 85 | 1.6 | 3.2 | 0.00 | 0.00 | 0.00 | 67 | 1009.5 |
| 20260508185507 | 29 | 83 | 1.6 | 3.2 | 0.00 | 0.00 | 0.00 | 67 | 1009.1 |
| 20260508185007 | 29 | 115 | 1.6 | 4.8 | 0.00 | 0.00 | 0.00 | 67 | 1009.1 |
| 20260508184506 | 29 | 114 | 3.2 | 8.0 | 0.00 | 0.00 | 0.00 | 67 | 1009.1 |
| 20260508184006 | 29 | 76 | 4.8 | 8.0 | 0.00 | 0.00 | 0.00 | 66 | 1009.1 |
| 20260508183507 | 29 | 72 | 4.8 | 8.0 | 0.00 | 0.00 | 0.00 | 66 | 1009.5 |
| 20260508183007 | 29 | 76 | 4.8 | 8.0 | 0.00 | 0.00 | 0.00 | 66 | 1009.1 |
| 20260508182507 | 29 | 116 | 3.2 | 4.8 | 0.00 | 0.00 | 0.00 | 66 | 1009.1 |
| 20260508182007 | 30 | 65 | 1.6 | 8.0 | 0.00 | 0.00 | 0.00 | 66 | 1009.5 |
| 20260508181506 | 30 | 57 | 8.0 | 11.3 | 0.00 | 0.00 | 0.00 | 65 | 1009.5 |
| 20260508181007 | 30 | 82 | 4.8 | 4.8 | 0.00 | 0.00 | 0.00 | 65 | 1009.5 |
| 20260508180506 | 30 | 94 | 8.0 | 9.7 | 0.00 | 0.00 | 0.00 | 65 | 1009.5 |
| 20260508180006 | 30 | 86 | 3.2 | 8.0 | 0.00 | 0.00 | 0.00 | 65 | 1009.5 |
| 20260508175506 | 30 | 76 | 6.4 | 12.9 | 0.00 | 0.00 | 0.00 | 65 | 1009.5 |
| 20260508175006 | 30 | 60 | 8.0 | 11.3 | 0.00 | 0.00 | 0.00 | 65 | 1009.5 |
| 20260508174506 | 30 | 102 | 3.2 | 9.7 | 0.00 | 0.00 | 0.00 | 65 | 1009.5 |
| 20260508174006 | 30 | 93 | 4.8 | 8.0 | 0.00 | 0.00 | 0.00 | 65 | 1009.5 |
| 20260508173506 | 30 | 70 | 4.8 | 9.7 | 0.00 | 0.00 | 0.00 | 65 | 1009.8 |
| 20260508173008 | 30 | 61 | 6.4 | 11.3 | 0.00 | 0.00 | 0.00 | 65 | 1009.5 |
| 20260508172506 | 30 | 70 | 6.4 | 8.0 | 0.00 | 0.00 | 0.00 | 65 | 1009.5 |
| 20260508172006 | 30 | 86 | 3.2 | 8.0 | 0.00 | 0.00 | 0.00 | 65 | 1009.8 |
| 20260508171506 | 30 | 70 | 8.0 | 11.3 | 0.00 | 0.00 | 0.00 | 65 | 1009.5 |
| 20260508171007 | 30 | 99 | 3.2 | 4.8 | 0.00 | 0.00 | 0.00 | 65 | 1009.8 |
| 20260508170507 | 30 | 74 | 4.8 | 8.0 | 0.00 | 0.00 | 0.00 | 65 | 1009.8 |
| 20260508170006 | 30 | 73 | 4.8 | 8.0 | 0.00 | 0.00 | 0.00 | 65 | 1009.8 |
| 20260508165508 | 30 | 83 | 3.2 | 8.0 | 0.00 | 0.00 | 0.00 | 65 | 1010.2 |
| 20260508165006 | 30 | 124 | 4.8 | 11.3 | 0.00 | 0.00 | 0.00 | 65 | 1009.8 |
| 20260508164507 | 30 | 94 | 4.8 | 12.9 | 0.00 | 0.00 | 0.00 | 65 | 1010.2 |
| 20260508164007 | 30 | 78 | 4.8 | 4.8 | 0.00 | 0.00 | 0.00 | 66 | 1010.2 |
| 20260508163507 | 30 | 113 | 3.2 | 9.7 | 0.00 | 0.00 | 0.00 | 66 | 1009.8 |
| 20260508163006 | 30 | 129 | 4.8 | 12.9 | 0.00 | 0.00 | 0.00 | 66 | 1010.2 |
| 20260508162507 | 30 | 72 | 8.0 | 9.7 | 0.00 | 0.00 | 0.00 | 65 | 1010.2 |
| 20260508162006 | 30 | 89 | 6.4 | 11.3 | 0.00 | 0.00 | 0.00 | 65 | 1010.5 |
| 20260508161506 | 30 | 89 | 3.2 | 9.7 | 0.00 | 0.00 | 0.00 | 65 | 1010.2 |
| 20260508161006 | 30 | 100 | 9.7 | 11.3 | 0.00 | 0.00 | 0.00 | 65 | 1010.2 |
| 20260508160507 | 30 | 94 | 1.6 | 8.0 | 0.00 | 0.00 | 0.00 | 65 | 1010.2 |
| 20260508160007 | 30 | 78 | 6.4 | 8.0 | 0.00 | 0.00 | 0.00 | 64 | 1010.2 |
| 20260508155506 | 30 | 78 | 3.2 | 9.7 | 0.00 | 0.00 | 0.00 | 64 | 1010.5 |
| 20260508155006 | 30 | 77 | 6.4 | 9.7 | 0.00 | 0.00 | 0.00 | 64 | 1010.2 |
| 20260508154506 | 30 | 83 | 8.0 | 11.3 | 0.00 | 0.00 | 0.00 | 64 | 1010.2 |
| 20260508154007 | 30 | 96 | 3.2 | 9.7 | 0.00 | 0.00 | 0.00 | 64 | 1010.5 |
| 20260508153507 | 30 | 97 | 3.2 | 4.8 | 0.00 | 0.00 | 0.00 | 64 | 1010.5 |
| 20260508153007 | 30 | 109 | 4.8 | 8.0 | 0.00 | 0.00 | 0.00 | 64 | 1010.5 |
| 20260508152507 | 30 | 87 | 3.2 | 8.0 | 0.00 | 0.00 | 0.00 | 64 | 1010.5 |
| 20260508152006 | 30 | 103 | 4.8 | 8.0 | 0.00 | 0.00 | 0.00 | 64 | 1010.5 |
| 20260508151506 | 30 | 97 | 3.2 | 8.0 | 0.00 | 0.00 | 0.00 | 63 | 1010.5 |
| 20260508151007 | 30 | 88 | 6.4 | 11.3 | 0.00 | 0.00 | 0.00 | 63 | 1010.5 |
| 20260508150506 | 30 | 93 | 9.7 | 12.9 | 0.00 | 0.00 | 0.00 | 63 | 1010.8 |
| 20260508150007 | 30 | 80 | 8.0 | 11.3 | 0.00 | 0.00 | 0.00 | 63 | 1010.5 |
| 20260508145506 | 30 | 109 | 6.4 | 11.3 | 0.00 | 0.00 | 0.00 | 62 | 1010.8 |
| 20260508145007 | 30 | 97 | 9.7 | 14.5 | 0.00 | 0.00 | 0.00 | 62 | 1010.5 |
| 20260508144507 | 30 | 69 | 9.7 | 14.5 | 0.00 | 0.00 | 0.00 | 62 | 1010.5 |
| 20260508144006 | 30 | 86 | 9.7 | 17.7 | 0.00 | 0.00 | 0.00 | 62 | 1010.8 |
| 20260508143507 | 30 | 95 | 11.3 | 17.7 | 0.00 | 0.00 | 0.00 | 62 | 1010.8 |
| 20260508143006 | 30 | 57 | 6.4 | 12.9 | 0.00 | 0.00 | 0.00 | 62 | 1010.8 |
| 20260508142506 | 30 | 65 | 9.7 | 12.9 | 0.00 | 0.00 | 0.00 | 62 | 1010.8 |
| 20260508142007 | 30 | 75 | 8.0 | 14.5 | 0.00 | 0.00 | 0.00 | 62 | 1010.8 |
| 20260508141507 | 30 | 53 | 8.0 | 12.9 | 0.00 | 0.00 | 0.00 | 62 | 1010.8 |
| 20260508141006 | 30 | 46 | 9.7 | 12.9 | 0.00 | 0.00 | 0.00 | 62 | 1011.2 |
| 20260508140418 | 30 | 91 | 4.8 | 9.7 | 0.00 | 0.00 | 0.00 | 62 | 1010.8 |
| 20260508135907 | 30 | 67 | 4.8 | 8.0 | 0.00 | 0.00 | 0.00 | 62 | 1010.8 |
| 20260508135406 | 30 | 60 | 9.7 | 14.5 | 0.00 | 0.00 | 0.00 | 62 | 1010.5 |
| 20260508134906 | 30 | 97 | 1.6 | 4.8 | 0.00 | 0.00 | 0.00 | 62 | 1010.5 |
| 20260508134408 | 30 | 70 | 4.8 | 9.7 | 0.00 | 0.00 | 0.00 | 61 | 1010.8 |
| 20260508133908 | 30 | 67 | 4.8 | 9.7 | 0.00 | 0.00 | 0.00 | 61 | 1010.5 |
| 20260508133406 | 30 | 62 | 4.8 | 4.8 | 0.00 | 0.00 | 0.00 | 61 | 1010.5 |
| 20260508132907 | 30 | 58 | 3.2 | 12.9 | 0.00 | 0.00 | 0.00 | 60 | 1010.8 |
| 20260508132406 | 30 | 74 | 6.4 | 12.9 | 0.00 | 0.00 | 0.00 | 60 | 1010.5 |
| 20260508131908 | 30 | 70 | 4.8 | 11.3 | 0.00 | 0.00 | 0.00 | 60 | 1010.5 |
| 20260508131406 | 30 | 78 | 3.2 | 11.3 | 0.00 | 0.00 | 0.00 | 61 | 1010.5 |
| 20260508130906 | 30 | 86 | 1.6 | 4.8 | 0.00 | 0.00 | 0.00 | 61 | 1010.5 |
| 20260508130406 | 31 | 56 | 3.2 | 4.8 | 0.00 | 0.00 | 0.00 | 61 | 1010.2 |
| 20260508125906 | 31 | 69 | 8.0 | 11.3 | 0.00 | 0.00 | 0.00 | 60 | 1010.2 |
| 20260508125406 | 31 | 39 | 6.4 | 11.3 | 0.00 | 0.00 | 0.00 | 60 | 1010.2 |
| 20260508124906 | 31 | 60 | 3.2 | 8.0 | 0.00 | 0.00 | 0.00 | 60 | 1010.2 |
| 20260508124406 | 31 | 77 | 4.8 | 8.0 | 0.00 | 0.00 | 0.00 | 60 | 1010.2 |
| 20260508123907 | 31 | 55 | 4.8 | 8.0 | 0.00 | 0.00 | 0.00 | 60 | 1009.8 |
| 20260508123407 | 31 | 68 | 6.4 | 9.7 | 0.00 | 0.00 | 0.00 | 60 | 1009.8 |
| 20260508122907 | 31 | 34 | 4.8 | 9.7 | 0.00 | 0.00 | 0.00 | 60 | 1009.5 |
| 20260508122407 | 31 | 45 | 1.6 | 4.8 | 0.00 | 0.00 | 0.00 | 60 | 1009.8 |
| 20260508121908 | 31 | 62 | 4.8 | 8.0 | 0.00 | 0.00 | 0.00 | 59 | 1009.8 |
| 20260508121406 | 31 | 65 | 6.4 | 11.3 | 0.00 | 0.00 | 0.00 | 59 | 1009.5 |
| 20260508120907 | 31 | 61 | 4.8 | 9.7 | 0.00 | 0.00 | 0.00 | 59 | 1009.8 |
| 20260508120407 | 31 | 71 | 8.0 | 9.7 | 0.00 | 0.00 | 0.00 | 59 | 1009.5 |
| 20260508115907 | 31 | 56 | 6.4 | 12.9 | 0.00 | 0.00 | 0.00 | 58 | 1009.5 |
| 20260508115408 | 31 | 60 | 3.2 | 4.8 | 0.00 | 0.00 | 0.00 | 58 | 1009.5 |
| 20260508114906 | 31 | 42 | 6.4 | 14.5 | 0.00 | 0.00 | 0.00 | 58 | 1009.5 |
| 20260508114406 | 31 | 58 | 3.2 | 8.0 | 0.00 | 0.00 | 0.00 | 58 | 1009.1 |
| 20260508113906 | 31 | 75 | 4.8 | 4.8 | 0.00 | 0.00 | 0.00 | 58 | 1009.5 |
| 20260508113406 | 31 | 89 | 4.8 | 8.0 | 0.00 | 0.00 | 0.00 | 58 | 1009.1 |
| 20260508112906 | 31 | 62 | 3.2 | 4.8 | 0.00 | 0.00 | 0.00 | 58 | 1008.8 |
| 20260508112406 | 31 | 71 | 3.2 | 4.8 | 0.00 | 0.00 | 0.00 | 57 | 1008.8 |
| 20260508111906 | 31 | 80 | 3.2 | 4.8 | 0.00 | 0.00 | 0.00 | 57 | 1009.1 |
| 20260508111406 | 32 | 121 | 1.6 | 3.2 | 0.00 | 0.00 | 0.00 | 57 | 1008.5 |
| 20260508110906 | 32 | 42 | 4.8 | 11.3 | 0.00 | 0.00 | 0.00 | 56 | 1008.8 |
| 20260508110406 | 32 | 23 | 3.2 | 12.9 | 0.00 | 0.00 | 0.00 | 56 | 1008.5 |
| 20260508105906 | 32 | 69 | 8.0 | 12.9 | 0.00 | 0.00 | 0.00 | 56 | 1008.5 |
| 20260508105406 | 32 | 83 | 3.2 | 11.3 | 0.00 | 0.00 | 0.00 | 56 | 1008.5 |
| 20260508104906 | 32 | 64 | 11.3 | 12.9 | 0.00 | 0.00 | 0.00 | 55 | 1008.5 |
| 20260508104408 | 32 | 47 | 6.4 | 11.3 | 0.00 | 0.00 | 0.00 | 55 | 1008.5 |
| 20260508103907 | 32 | 49 | 11.3 | 14.5 | 0.00 | 0.00 | 0.00 | 55 | 1008.5 |
| 20260508103406 | 32 | 35 | 8.0 | 12.9 | 0.00 | 0.00 | 0.00 | 54 | 1008.1 |
| 20260508102906 | 32 | 71 | 11.3 | 16.1 | 0.00 | 0.00 | 0.00 | 54 | 1008.1 |